createdAt,value
2018-10-17T00:02:00.496Z,13.40
2018-10-17T00:04:29.185Z,13.40
2018-10-17T00:06:57.762Z,13.30
2018-10-17T00:09:25.578Z,13.30
2018-10-17T00:11:54.418Z,13.30
2018-10-17T00:14:22.146Z,13.30
2018-10-17T00:16:49.738Z,13.10
2018-10-17T00:19:17.680Z,13.10
2018-10-17T00:21:45.445Z,13.10
2018-10-17T00:24:13.461Z,13.00
2018-10-17T00:26:41.300Z,12.90
2018-10-17T00:29:09.056Z,12.90
2018-10-17T00:31:36.691Z,13.00
2018-10-17T00:34:05.303Z,13.00
2018-10-17T00:36:33.593Z,13.00
2018-10-17T00:39:04.027Z,12.90
2018-10-17T00:41:32.686Z,12.90
2018-10-17T00:44:00.545Z,12.80
2018-10-17T00:46:28.331Z,12.90
2018-10-17T00:48:56.917Z,12.90
2018-10-17T00:51:24.705Z,12.90
2018-10-17T00:53:52.341Z,12.90
2018-10-17T00:56:20.141Z,12.90
2018-10-17T00:59:13.305Z,12.90
2018-10-17T01:01:41.095Z,12.80
2018-10-17T01:04:09.264Z,12.60
2018-10-17T01:06:39.210Z,12.50
2018-10-17T01:09:09.339Z,12.50
2018-10-17T01:11:38.678Z,12.50
2018-10-17T01:14:07.230Z,12.40
2018-10-17T01:16:35.644Z,12.50
2018-10-17T01:19:04.204Z,12.50
2018-10-17T01:21:32.461Z,12.50
2018-10-17T01:24:00.178Z,12.50
2018-10-17T01:26:28.558Z,12.50
2018-10-17T01:28:56.408Z,12.40
2018-10-17T01:31:24.134Z,12.30
2018-10-17T01:33:51.950Z,12.30
2018-10-17T01:36:19.549Z,12.30
2018-10-17T01:38:48.490Z,12.20
2018-10-17T01:41:17.081Z,12.20
2018-10-17T01:43:45.039Z,12.20
2018-10-17T01:46:12.816Z,12.20
2018-10-17T01:48:40.621Z,12.20
2018-10-17T01:51:08.181Z,12.10
2018-10-17T01:53:36.098Z,12.10
2018-10-17T01:56:04.131Z,12.10
2018-10-17T01:58:32.552Z,12.10
2018-10-17T02:01:00.918Z,12.00
2018-10-17T02:03:30.751Z,12.00
2018-10-17T02:05:58.606Z,12.00
2018-10-17T02:08:26.661Z,12.10
2018-10-17T02:10:54.485Z,12.00
2018-10-17T02:13:22.440Z,12.00
2018-10-17T02:15:52.017Z,12.00
2018-10-17T02:18:20.237Z,12.00
2018-10-17T02:20:49.143Z,12.00
2018-10-17T02:23:16.880Z,12.00
2018-10-17T02:25:45.399Z,12.00
2018-10-17T02:28:13.326Z,12.00
2018-10-17T02:30:41.116Z,12.00
2018-10-17T02:33:10.129Z,12.00
2018-10-17T02:35:41.288Z,12.00
2018-10-17T02:38:09.284Z,12.00
2018-10-17T02:40:44.572Z,12.20
2018-10-17T02:43:13.348Z,12.20
2018-10-17T02:45:40.928Z,12.30
2018-10-17T02:48:08.878Z,12.30
2018-10-17T02:50:36.640Z,12.30
2018-10-17T02:53:04.476Z,12.30
2018-10-17T02:55:33.546Z,12.40
2018-10-17T02:58:01.749Z,12.40
2018-10-17T03:00:31.213Z,12.30
2018-10-17T03:03:00.235Z,12.30
2018-10-17T03:05:27.967Z,12.30
2018-10-17T03:07:55.643Z,12.40
2018-10-17T03:10:23.228Z,12.40
2018-10-17T03:12:51.166Z,12.50
2018-10-17T03:15:18.790Z,12.50
2018-10-17T03:17:47.671Z,12.50
2018-10-17T03:20:16.218Z,12.60
2018-10-17T03:22:45.625Z,12.60
2018-10-17T03:25:15.327Z,12.60
2018-10-17T03:27:42.999Z,12.60
2018-10-17T03:30:10.835Z,12.70
2018-10-17T03:32:39.456Z,12.70
2018-10-17T03:35:07.286Z,12.70
2018-10-17T03:37:36.858Z,12.70
2018-10-17T03:40:06.162Z,12.70
2018-10-17T03:42:34.136Z,12.70
2018-10-17T03:45:02.247Z,12.70
2018-10-17T03:47:29.977Z,12.70
2018-10-17T03:49:58.933Z,12.60
2018-10-17T03:52:26.921Z,12.60
2018-10-17T03:54:54.906Z,12.60
2018-10-17T03:57:22.944Z,12.60
2018-10-17T03:59:51.440Z,12.50
2018-10-17T04:02:19.196Z,12.60
2018-10-17T04:04:47.044Z,12.60
2018-10-17T04:07:15.363Z,12.60
2018-10-17T04:09:44.205Z,12.60
2018-10-17T04:12:12.052Z,12.60
2018-10-17T04:14:39.838Z,12.50
2018-10-17T04:17:07.882Z,12.50
2018-10-17T04:19:35.573Z,12.50
2018-10-17T04:22:03.825Z,12.50
2018-10-17T04:24:31.502Z,12.50
2018-10-17T04:26:59.295Z,12.40
2018-10-17T04:29:27.787Z,12.40
2018-10-17T04:31:55.392Z,12.40
2018-10-17T04:34:23.070Z,12.50
2018-10-17T04:36:50.674Z,12.50
2018-10-17T04:39:18.410Z,12.50
2018-10-17T04:41:55.645Z,12.40
2018-10-17T04:44:23.429Z,12.40
2018-10-17T04:46:52.049Z,12.40
2018-10-17T04:49:19.783Z,12.30
2018-10-17T04:51:47.392Z,12.30
2018-10-17T04:54:15.145Z,12.30
2018-10-17T04:56:43.581Z,12.30
2018-10-17T04:59:11.722Z,12.20
2018-10-17T05:01:39.536Z,12.20
2018-10-17T05:04:07.403Z,12.20
2018-10-17T05:06:35.202Z,12.20
2018-10-17T05:09:04.144Z,12.20
2018-10-17T05:11:31.932Z,12.20
2018-10-17T05:13:59.710Z,12.20
2018-10-17T05:16:27.654Z,12.20
2018-10-17T05:18:56.118Z,12.20
2018-10-17T05:21:25.612Z,12.20
2018-10-17T05:23:54.418Z,12.20
2018-10-17T05:26:22.386Z,12.20
2018-10-17T05:28:52.760Z,12.10
2018-10-17T05:31:21.038Z,12.20
2018-10-17T05:33:49.557Z,12.20
2018-10-17T05:36:18.231Z,12.10
2018-10-17T05:38:46.220Z,12.10
2018-10-17T05:41:14.411Z,12.10
2018-10-17T05:43:42.517Z,12.00
2018-10-17T05:46:11.441Z,12.10
2018-10-17T05:48:39.472Z,12.20
2018-10-17T05:51:07.604Z,12.30
2018-10-17T05:53:35.566Z,12.40
2018-10-17T05:56:04.386Z,12.40
2018-10-17T05:58:32.566Z,12.40
2018-10-17T06:01:00.933Z,12.50
2018-10-17T06:03:29.920Z,12.50
2018-10-17T06:05:58.902Z,12.50
2018-10-17T06:08:27.998Z,12.60
2018-10-17T06:10:57.010Z,12.70
2018-10-17T06:13:24.935Z,12.70
2018-10-17T06:15:53.136Z,12.80
2018-10-17T06:18:21.041Z,12.90
2018-10-17T06:20:48.980Z,13.00
2018-10-17T06:23:17.142Z,13.10
2018-10-17T06:25:47.282Z,13.20
2018-10-17T06:28:16.092Z,13.30
2018-10-17T06:30:45.997Z,13.40
2018-10-17T06:33:14.892Z,13.50
2018-10-17T06:35:43.840Z,13.50
2018-10-17T06:38:12.943Z,13.70
2018-10-17T06:40:41.546Z,13.80
2018-10-17T06:43:09.937Z,13.90
2018-10-17T06:45:37.968Z,14.10
2018-10-17T06:48:06.425Z,14.40
2018-10-17T06:50:34.465Z,15.40
2018-10-17T06:53:02.431Z,15.80
2018-10-17T06:55:30.825Z,15.80
2018-10-17T06:57:58.826Z,15.60
2018-10-17T07:00:27.012Z,15.50
2018-10-17T07:02:55.463Z,15.70
2018-10-17T07:05:23.578Z,16.50
2018-10-17T07:07:51.630Z,17.20
2018-10-17T07:10:19.578Z,17.40
2018-10-17T07:12:47.709Z,17.70
2018-10-17T07:15:15.804Z,18.20
2018-10-17T07:17:43.812Z,18.50
2018-10-17T07:20:11.880Z,18.80
2018-10-17T07:22:39.942Z,19.00
2018-10-17T07:25:08.080Z,19.00
2018-10-17T07:27:37.059Z,19.00
2018-10-17T07:30:06.675Z,19.10
2018-10-17T07:32:34.853Z,19.30
2018-10-17T07:35:03.083Z,19.90
2018-10-17T07:37:32.481Z,20.50
2018-10-17T07:40:01.223Z,21.30
2018-10-17T07:42:29.350Z,21.40
2018-10-17T07:44:57.391Z,21.10
2018-10-17T07:47:25.500Z,21.20
2018-10-17T07:49:56.553Z,21.40
2018-10-17T07:52:26.089Z,21.30
2018-10-17T07:54:54.317Z,20.80
2018-10-17T07:57:22.296Z,20.70
2018-10-17T07:59:50.355Z,20.90
2018-10-17T08:02:19.106Z,21.10
2018-10-17T08:04:47.273Z,21.60
2018-10-17T08:07:16.550Z,22.10
2018-10-17T08:09:46.782Z,21.90
2018-10-17T08:12:15.124Z,21.80
2018-10-17T08:14:43.118Z,21.60
2018-10-17T08:17:11.863Z,21.40
2018-10-17T08:19:40.147Z,21.30
2018-10-17T08:22:08.412Z,21.50
2018-10-17T08:24:36.560Z,21.70
2018-10-17T08:27:05.286Z,21.70
2018-10-17T08:29:33.563Z,21.70
2018-10-17T08:32:02.530Z,21.90
2018-10-17T08:34:33.413Z,21.90
2018-10-17T08:37:02.280Z,21.50
2018-10-17T08:39:32.046Z,21.20
2018-10-17T08:42:00.961Z,21.20
2018-10-17T08:44:30.453Z,21.30
2018-10-17T08:46:58.485Z,21.40
2018-10-17T08:49:26.859Z,21.30
2018-10-17T08:51:55.898Z,21.50
2018-10-17T08:54:23.900Z,21.70
2018-10-17T08:56:54.352Z,21.70
2018-10-17T08:59:23.222Z,21.60
2018-10-17T09:01:53.199Z,21.50
2018-10-17T09:04:24.740Z,21.40
2018-10-17T09:06:55.450Z,21.60
2018-10-17T09:09:24.296Z,21.90
2018-10-17T09:11:58.920Z,22.30
2018-10-17T09:14:28.520Z,22.70
2018-10-17T09:16:57.942Z,23.10
2018-10-17T09:19:27.608Z,23.50
2018-10-17T09:21:57.561Z,23.70
2018-10-17T09:24:27.803Z,23.60
2018-10-17T09:26:59.682Z,23.60
2018-10-17T09:29:29.345Z,22.80
2018-10-17T09:32:00.608Z,22.70
2018-10-17T09:34:32.009Z,23.10
2018-10-17T09:37:04.084Z,23.10
2018-10-17T09:39:33.863Z,23.20
2018-10-17T09:42:02.837Z,23.60
2018-10-17T09:44:32.351Z,24.00
2018-10-17T09:47:01.728Z,24.30
2018-10-17T09:49:30.117Z,24.60
2018-10-17T09:52:01.425Z,24.90
2018-10-17T09:54:31.490Z,24.20
2018-10-17T09:57:01.505Z,24.10
2018-10-17T09:59:31.611Z,24.00
2018-10-17T10:02:01.403Z,24.10
2018-10-17T10:04:31.706Z,24.00
2018-10-17T10:07:02.671Z,23.90
2018-10-17T10:09:31.334Z,23.70
2018-10-17T10:12:11.090Z,23.80
2018-10-17T10:14:41.172Z,23.60
2018-10-17T10:17:24.998Z,23.30
2018-10-17T10:19:53.590Z,23.20
2018-10-17T10:22:30.715Z,23.20
2018-10-17T10:25:00.063Z,23.20
2018-10-17T10:27:29.538Z,23.20
2018-10-17T10:30:08.046Z,23.30
2018-10-17T10:32:36.733Z,23.30
2018-10-17T10:35:08.951Z,23.30
2018-10-17T10:37:38.703Z,23.40
2018-10-17T10:40:09.287Z,23.60
2018-10-17T10:42:42.129Z,23.80
2018-10-17T10:45:13.268Z,24.10
2018-10-17T10:47:42.042Z,24.30
2018-10-17T10:50:11.504Z,24.50
2018-10-17T10:52:39.985Z,24.90
2018-10-17T10:55:08.860Z,25.10
2018-10-17T10:57:37.503Z,25.10
2018-10-17T11:00:07.282Z,25.30
2018-10-17T11:02:36.383Z,25.50
2018-10-17T11:05:08.163Z,25.50
2018-10-17T11:07:43.047Z,25.20
2018-10-17T11:10:17.571Z,25.20
2018-10-17T11:12:47.594Z,25.20
2018-10-17T11:15:19.010Z,25.60
2018-10-17T11:17:50.456Z,25.90
2018-10-17T11:20:45.491Z,25.70
2018-10-17T11:23:14.951Z,25.90
2018-10-17T11:25:49.367Z,25.70
2018-10-17T11:28:22.221Z,25.80
2018-10-17T11:30:53.102Z,25.60
2018-10-17T11:33:26.421Z,25.80
2018-10-17T11:35:58.267Z,26.00
2018-10-17T11:38:30.275Z,26.00
2018-10-17T11:41:28.199Z,25.70
2018-10-17T11:43:58.306Z,25.70
2018-10-17T11:46:30.904Z,25.90
2018-10-17T11:49:05.700Z,25.90
2018-10-17T11:54:21.408Z,25.50
2018-10-17T11:56:51.907Z,25.70
2018-10-17T11:59:21.588Z,25.90
2018-10-17T12:01:50.868Z,26.10
2018-10-17T12:04:25.351Z,26.10
2018-10-17T12:06:53.869Z,25.70
2018-10-17T12:09:23.403Z,25.80
2018-10-17T12:12:08.601Z,25.90
2018-10-17T12:14:37.410Z,25.90
2018-10-17T12:17:11.857Z,25.90
2018-10-17T12:19:40.325Z,25.70
2018-10-17T12:22:18.171Z,25.60
2018-10-17T12:24:46.594Z,25.60
2018-10-17T12:27:17.723Z,25.50
2018-10-17T12:29:46.344Z,25.50
2018-10-17T12:32:20.128Z,25.70
2018-10-17T12:34:58.859Z,25.90
2018-10-17T12:37:32.643Z,26.10
2018-10-17T12:40:03.654Z,25.90
2018-10-17T12:42:34.715Z,25.60
2018-10-17T12:45:05.291Z,25.40
2018-10-17T12:47:34.384Z,25.50
2018-10-17T12:50:04.785Z,25.70
2018-10-17T12:52:39.311Z,25.70
2018-10-17T12:55:11.800Z,25.80
2018-10-17T12:57:46.340Z,25.60
2018-10-17T13:00:17.038Z,25.40
2018-10-17T13:02:45.483Z,25.30
2018-10-17T13:05:15.506Z,25.10
2018-10-17T13:07:44.351Z,25.20
2018-10-17T13:10:14.082Z,25.20
2018-10-17T13:12:45.288Z,25.20
2018-10-17T13:15:15.762Z,24.90
2018-10-17T13:17:45.654Z,24.90
2018-10-17T13:20:15.364Z,24.90
2018-10-17T13:22:47.291Z,25.00
2018-10-17T13:25:18.205Z,24.80
2018-10-17T13:27:46.461Z,24.40
2018-10-17T13:30:14.527Z,24.20
2018-10-17T13:32:43.970Z,24.20
2018-10-17T13:35:12.841Z,24.00
2018-10-17T13:37:41.213Z,23.80
2018-10-17T13:40:09.970Z,23.80
2018-10-17T13:42:39.485Z,23.80
2018-10-17T13:45:08.850Z,23.90
2018-10-17T13:47:37.004Z,23.90
2018-10-17T13:50:05.999Z,24.00
2018-10-17T13:52:34.317Z,24.00
2018-10-17T13:55:04.181Z,23.90
2018-10-17T13:57:33.116Z,23.90
2018-10-17T14:00:03.593Z,24.00
2018-10-17T14:02:32.753Z,24.00
2018-10-17T14:05:03.765Z,24.10
2018-10-17T14:07:32.289Z,24.10
2018-10-17T14:10:01.557Z,24.10
2018-10-17T14:12:30.041Z,24.10
2018-10-17T14:15:00.913Z,24.00
2018-10-17T14:17:31.308Z,24.00
2018-10-17T14:20:00.378Z,24.00
2018-10-17T14:22:29.175Z,23.90
2018-10-17T14:24:57.878Z,23.90
2018-10-17T14:27:30.570Z,23.90
2018-10-17T14:29:59.024Z,23.70
2018-10-17T14:32:29.418Z,23.60
2018-10-17T14:34:58.261Z,23.60
2018-10-17T15:25:09.511Z,23.60
2018-10-17T15:27:40.236Z,23.10
2018-10-17T15:30:09.734Z,23.10
2018-10-17T15:32:38.511Z,23.00
2018-10-17T15:35:09.157Z,23.00
2018-10-17T15:37:41.139Z,22.90
2018-10-17T15:40:11.588Z,22.80
2018-10-17T15:42:42.968Z,22.70
2018-10-17T15:48:01.413Z,22.30
2018-10-17T15:50:29.911Z,22.20
2018-10-17T15:53:06.019Z,22.00
2018-10-17T15:55:47.983Z,21.90
2018-10-17T15:58:20.585Z,21.80
2018-10-17T16:01:03.642Z,21.70
2018-10-17T16:03:35.960Z,21.60
2018-10-17T16:06:06.092Z,21.50
2018-10-17T16:11:57.226Z,21.20
2018-10-17T16:14:40.748Z,21.10
2018-10-17T16:17:12.900Z,21.00
2018-10-17T16:19:44.073Z,20.90
2018-10-17T16:22:20.489Z,20.40
2018-10-17T16:24:50.442Z,20.00
2018-10-17T16:27:20.336Z,19.60
2018-10-17T16:29:49.415Z,19.40
2018-10-17T16:32:17.664Z,19.20
2018-10-17T16:34:45.955Z,19.10
2018-10-17T16:37:13.797Z,18.90
2018-10-17T16:39:41.917Z,18.80
2018-10-17T16:42:10.143Z,18.70
2018-10-17T16:44:37.709Z,18.60
2018-10-17T16:47:05.969Z,18.40
2018-10-17T16:49:33.852Z,18.40
2018-10-17T16:52:01.692Z,18.20
2018-10-17T16:54:29.739Z,18.20
2018-10-17T16:58:43.279Z,18.10
2018-10-17T17:01:11.536Z,18.00
2018-10-17T17:51:09.632Z,17.70
2018-10-17T17:53:38.511Z,16.50
2018-10-17T17:56:06.560Z,16.40
2018-10-17T17:58:35.274Z,16.30
2018-10-17T18:01:03.650Z,16.30
2018-10-17T18:03:32.272Z,16.20
2018-10-17T18:06:00.434Z,16.10
2018-10-17T18:08:28.665Z,16.00
2018-10-17T18:10:57.743Z,16.00
2018-10-17T18:13:25.895Z,16.00
2018-10-17T18:15:56.402Z,16.00
2018-10-17T18:24:12.181Z,15.80
2018-10-17T18:26:42.886Z,15.80
2018-10-17T18:29:15.143Z,15.70
2018-10-17T18:31:50.396Z,15.70
2018-10-17T18:34:24.921Z,15.70
2018-10-17T18:36:58.322Z,15.70
2018-10-17T18:39:30.098Z,15.60
2018-10-17T18:42:05.241Z,15.60
2018-10-17T18:44:36.560Z,15.60
2018-10-17T18:47:11.109Z,15.50
2018-10-17T18:49:43.207Z,15.40
2018-10-17T18:52:14.221Z,15.30
2018-10-17T18:54:47.008Z,15.30
2018-10-17T18:57:16.619Z,15.30
2018-10-17T18:59:46.967Z,15.20
2018-10-17T19:02:16.644Z,15.20
2018-10-17T19:04:48.132Z,15.20
2018-10-17T19:07:20.052Z,15.10
2018-10-17T19:09:48.714Z,15.10
2018-10-17T19:12:21.150Z,15.00
2018-10-17T19:14:49.952Z,15.00
2018-10-17T19:17:19.517Z,14.90
2018-10-17T19:19:49.199Z,15.00
2018-10-17T19:22:18.079Z,14.90
2018-10-17T19:24:47.455Z,14.80
2018-10-17T19:27:16.394Z,14.80
2018-10-17T19:29:47.770Z,14.80
2018-10-17T19:32:16.432Z,14.80
2018-10-17T19:34:45.242Z,14.80
2018-10-17T19:37:13.773Z,14.80
2018-10-17T19:39:42.626Z,14.80
2018-10-17T19:42:12.272Z,14.80
2018-10-17T19:44:44.323Z,14.90
2018-10-17T19:47:16.099Z,14.80
2018-10-17T19:49:49.194Z,14.90
2018-10-17T19:52:19.058Z,14.90
2018-10-17T19:54:56.057Z,14.90
2018-10-17T19:57:27.775Z,14.90
2018-10-17T19:59:56.600Z,14.90
2018-10-17T20:02:24.446Z,14.90
2018-10-17T20:04:52.297Z,15.00
2018-10-17T20:07:20.726Z,15.00
2018-10-17T20:09:49.028Z,15.00
2018-10-17T20:12:18.030Z,14.90
2018-10-17T20:14:46.385Z,14.90
2018-10-17T20:17:14.611Z,14.90
2018-10-17T20:19:42.354Z,14.90
2018-10-17T20:22:13.081Z,14.90
2018-10-17T20:24:41.466Z,15.00
2018-10-17T20:27:09.790Z,14.90
2018-10-17T20:29:45.222Z,14.90
2018-10-17T20:32:13.060Z,14.90
2018-10-17T20:34:40.922Z,14.90
2018-10-17T20:37:09.616Z,14.80
2018-10-17T20:39:38.333Z,14.80
2018-10-17T20:42:14.925Z,14.80
2018-10-17T20:44:42.762Z,14.80
2018-10-17T20:47:11.791Z,14.70
2018-10-17T20:49:40.656Z,14.70
2018-10-17T20:52:09.066Z,14.70
2018-10-17T20:54:36.847Z,14.60
2018-10-17T20:57:05.128Z,14.60
2018-10-17T20:59:33.155Z,14.60
2018-10-17T21:02:00.951Z,14.50
2018-10-17T21:04:28.732Z,14.60
2018-10-17T21:06:57.680Z,14.50
2018-10-17T21:09:25.836Z,14.50
2018-10-17T21:11:53.631Z,14.50
2018-10-17T21:14:21.606Z,14.50
2018-10-17T21:16:49.190Z,14.40
2018-10-17T21:19:17.254Z,14.40
2018-10-17T21:21:45.368Z,14.40
2018-10-17T21:24:13.012Z,14.40
2018-10-17T21:26:40.706Z,14.40
2018-10-17T21:29:08.426Z,14.30
2018-10-17T21:31:41.290Z,14.30
2018-10-17T21:34:09.204Z,14.30
2018-10-17T21:36:37.038Z,14.20
2018-10-17T21:39:08.145Z,14.20
2018-10-17T21:41:36.456Z,14.20
2018-10-17T21:44:31.071Z,14.10
2018-10-17T21:47:36.261Z,14.10
2018-10-17T21:52:59.070Z,14.10
2018-10-17T21:55:27.076Z,14.10
2018-10-17T22:07:44.516Z,14.00
2018-10-17T22:10:13.937Z,13.80
2018-10-17T22:12:42.788Z,13.80
2018-10-17T22:15:11.494Z,13.80
2018-10-17T22:17:40.063Z,13.80
2018-10-17T22:20:09.819Z,13.80
2018-10-17T22:22:42.032Z,13.80
2018-10-17T22:25:12.459Z,13.70
2018-10-17T22:27:41.860Z,13.70
2018-10-17T22:30:15.508Z,13.70
2018-10-17T22:32:47.935Z,13.70
2018-10-17T22:35:19.536Z,13.60
2018-10-17T22:37:49.137Z,13.60
2018-10-17T22:40:18.286Z,13.60
2018-10-17T22:42:51.090Z,13.50
2018-10-17T22:45:22.981Z,13.50
2018-10-17T22:47:53.091Z,13.40
2018-10-17T22:50:22.906Z,13.40
2018-10-17T22:53:01.577Z,13.40
2018-10-17T22:55:30.770Z,13.40
2018-10-17T22:58:00.203Z,13.40
2018-10-17T23:00:30.810Z,13.40
2018-10-17T23:03:00.233Z,13.40
2018-10-17T23:05:29.617Z,13.40
2018-10-17T23:07:59.751Z,13.40
2018-10-17T23:10:30.388Z,13.50
2018-10-17T23:13:00.011Z,13.50
2018-10-17T23:15:29.419Z,13.50
2018-10-17T23:17:58.826Z,13.50
2018-10-17T23:20:27.403Z,13.50
2018-10-17T23:22:58.058Z,13.50
2018-10-17T23:25:28.111Z,13.40
2018-10-17T23:27:56.615Z,13.40
2018-10-17T23:30:28.666Z,13.50
2018-10-17T23:32:57.109Z,13.40
2018-10-17T23:35:26.452Z,13.40
2018-10-17T23:38:01.098Z,13.40
2018-10-17T23:40:33.391Z,13.40
2018-10-17T23:43:03.288Z,13.40
2018-10-17T23:45:32.030Z,13.40
2018-10-17T23:48:01.859Z,13.40
2018-10-17T23:50:30.994Z,13.40
2018-10-17T23:53:05.978Z,13.40
2018-10-17T23:55:48.853Z,13.40
2018-10-17T23:58:18.382Z,13.40
